sensor_id;sensor_type;location;lat;lon;timestamp;P1;durP1;ratioP1;P2;durP2;ratioP2
65130;SDS011;51709;54.912;8.316;2023-07-29T00:00:17;1999.90;;;999.90;;
65130;SDS011;51709;54.912;8.316;2023-07-29T00:05:40;562.90;;;49.55;;
65130;SDS011;51709;54.912;8.316;2023-07-29T00:11:01;4.00;;;2.67;;
65130;SDS011;51709;54.912;8.316;2023-07-29T00:16:22;2.22;;;1.98;;
65130;SDS011;51709;54.912;8.316;2023-07-29T00:21:42;1999.90;;;999.90;;
65130;SDS011;51709;54.912;8.316;2023-07-29T00:27:03;2.15;;;1.70;;
65130;SDS011;51709;54.912;8.316;2023-07-29T00:32:25;2.42;;;2.20;;
65130;SDS011;51709;54.912;8.316;2023-07-29T00:37:47;3.40;;;1.85;;
65130;SDS011;51709;54.912;8.316;2023-07-29T00:43:08;2.40;;;2.20;;
65130;SDS011;51709;54.912;8.316;2023-07-29T00:48:28;3.45;;;2.60;;
65130;SDS011;51709;54.912;8.316;2023-07-29T00:53:49;3.17;;;1.98;;
65130;SDS011;51709;54.912;8.316;2023-07-29T00:59:10;932.25;;;138.55;;
65130;SDS011;51709;54.912;8.316;2023-07-29T01:04:31;1999.90;;;999.90;;
65130;SDS011;51709;54.912;8.316;2023-07-29T01:09:55;1999.90;;;999.90;;
65130;SDS011;51709;54.912;8.316;2023-07-29T01:15:28;1999.90;;;999.90;;
65130;SDS011;51709;54.912;8.316;2023-07-29T01:20:53;1522.63;;;770.92;;
65130;SDS011;51709;54.912;8.316;2023-07-29T01:26:15;1999.90;;;999.90;;
65130;SDS011;51709;54.912;8.316;2023-07-29T01:31:37;1999.90;;;999.90;;
65130;SDS011;51709;54.912;8.316;2023-07-29T01:37:03;1999.90;;;999.90;;
65130;SDS011;51709;54.912;8.316;2023-07-29T01:42:29;38.85;;;36.45;;
65130;SDS011;51709;54.912;8.316;2023-07-29T01:47:51;1999.90;;;999.90;;
65130;SDS011;51709;54.912;8.316;2023-07-29T01:53:12;1999.90;;;999.90;;
65130;SDS011;51709;54.912;8.316;2023-07-29T01:58:33;1999.90;;;999.90;;
65130;SDS011;51709;54.912;8.316;2023-07-29T02:03:53;1999.90;;;999.90;;
65130;SDS011;51709;54.912;8.316;2023-07-29T02:09:35;1999.90;;;999.90;;
65130;SDS011;51709;54.912;8.316;2023-07-29T02:14:55;1999.90;;;999.90;;
65130;SDS011;51709;54.912;8.316;2023-07-29T02:20:16;1999.90;;;999.90;;
65130;SDS011;51709;54.912;8.316;2023-07-29T02:25:37;1999.90;;;999.90;;
65130;SDS011;51709;54.912;8.316;2023-07-29T02:31:17;1999.90;;;999.90;;
65130;SDS011;51709;54.912;8.316;2023-07-29T02:36:41;1999.90;;;999.90;;
65130;SDS011;51709;54.912;8.316;2023-07-29T02:42:01;1999.90;;;999.90;;
65130;SDS011;51709;54.912;8.316;2023-07-29T02:47:22;1999.90;;;999.90;;
65130;SDS011;51709;54.912;8.316;2023-07-29T02:52:43;1999.90;;;999.90;;
65130;SDS011;51709;54.912;8.316;2023-07-29T02:58:04;1999.90;;;999.90;;
65130;SDS011;51709;54.912;8.316;2023-07-29T03:03:25;11.50;;;11.05;;
65130;SDS011;51709;54.912;8.316;2023-07-29T03:08:46;5.25;;;4.75;;
65130;SDS011;51709;54.912;8.316;2023-07-29T03:14:06;504.20;;;47.17;;
65130;SDS011;51709;54.912;8.316;2023-07-29T03:19:27;7.55;;;4.30;;
65130;SDS011;51709;54.912;8.316;2023-07-29T03:24:48;3.95;;;3.53;;
65130;SDS011;51709;54.912;8.316;2023-07-29T03:30:09;283.60;;;27.58;;
65130;SDS011;51709;54.912;8.316;2023-07-29T03:43:27;5.57;;;5.07;;
65130;SDS011;51709;54.912;8.316;2023-07-29T03:48:50;5.63;;;4.28;;
65130;SDS011;51709;54.912;8.316;2023-07-29T03:54:10;4.63;;;4.22;;
65130;SDS011;51709;54.912;8.316;2023-07-29T03:59:31;4.65;;;4.18;;
65130;SDS011;51709;54.912;8.316;2023-07-29T04:04:52;7.22;;;4.43;;
65130;SDS011;51709;54.912;8.316;2023-07-29T04:10:13;5.88;;;4.22;;
65130;SDS011;51709;54.912;8.316;2023-07-29T04:15:36;6.28;;;4.10;;
65130;SDS011;51709;54.912;8.316;2023-07-29T04:20:57;5.03;;;3.95;;
65130;SDS011;51709;54.912;8.316;2023-07-29T04:26:17;5.22;;;3.75;;
65130;SDS011;51709;54.912;8.316;2023-07-29T04:31:39;6.93;;;6.00;;
65130;SDS011;51709;54.912;8.316;2023-07-29T04:37:00;155.60;;;48.05;;
65130;SDS011;51709;54.912;8.316;2023-07-29T04:42:21;88.90;;;10.43;;
65130;SDS011;51709;54.912;8.316;2023-07-29T04:47:42;3.53;;;2.28;;
65130;SDS011;51709;54.912;8.316;2023-07-29T04:53:02;9.43;;;5.43;;
65130;SDS011;51709;54.912;8.316;2023-07-29T04:58:23;3.75;;;2.58;;
65130;SDS011;51709;54.912;8.316;2023-07-29T05:03:44;4.90;;;3.22;;
65130;SDS011;51709;54.912;8.316;2023-07-29T05:09:12;4.95;;;4.13;;
65130;SDS011;51709;54.912;8.316;2023-07-29T05:14:37;4.63;;;3.03;;
65130;SDS011;51709;54.912;8.316;2023-07-29T05:19:57;4.05;;;3.72;;
65130;SDS011;51709;54.912;8.316;2023-07-29T05:25:18;5.10;;;3.22;;
65130;SDS011;51709;54.912;8.316;2023-07-29T05:30:39;4.43;;;3.50;;
65130;SDS011;51709;54.912;8.316;2023-07-29T05:36:00;9.60;;;7.30;;
65130;SDS011;51709;54.912;8.316;2023-07-29T05:41:21;4.45;;;3.25;;
65130;SDS011;51709;54.912;8.316;2023-07-29T05:46:42;6.88;;;4.47;;
65130;SDS011;51709;54.912;8.316;2023-07-29T05:52:02;8.00;;;5.65;;
65130;SDS011;51709;54.912;8.316;2023-07-29T05:57:23;12.60;;;6.68;;
65130;SDS011;51709;54.912;8.316;2023-07-29T06:02:44;8.55;;;5.55;;
65130;SDS011;51709;54.912;8.316;2023-07-29T06:08:09;9.35;;;5.78;;
65130;SDS011;51709;54.912;8.316;2023-07-29T06:13:31;8.52;;;4.85;;
65130;SDS011;51709;54.912;8.316;2023-07-29T06:18:52;9.98;;;5.13;;
65130;SDS011;51709;54.912;8.316;2023-07-29T06:24:13;186.75;;;23.88;;
65130;SDS011;51709;54.912;8.316;2023-07-29T06:29:34;5.43;;;3.30;;
65130;SDS011;51709;54.912;8.316;2023-07-29T06:34:54;460.90;;;44.67;;
65130;SDS011;51709;54.912;8.316;2023-07-29T06:40:15;3.33;;;2.95;;
65130;SDS011;51709;54.912;8.316;2023-07-29T06:45:36;3.80;;;2.63;;
65130;SDS011;51709;54.912;8.316;2023-07-29T06:50:57;7.35;;;3.75;;
65130;SDS011;51709;54.912;8.316;2023-07-29T06:56:20;6.13;;;4.23;;
65130;SDS011;51709;54.912;8.316;2023-07-29T07:01:41;8.20;;;4.45;;
65130;SDS011;51709;54.912;8.316;2023-07-29T07:07:02;11.70;;;5.05;;
65130;SDS011;51709;54.912;8.316;2023-07-29T07:12:22;17.25;;;5.07;;
65130;SDS011;51709;54.912;8.316;2023-07-29T07:17:44;4.03;;;3.40;;
65130;SDS011;51709;54.912;8.316;2023-07-29T07:23:04;88.40;;;8.77;;
65130;SDS011;51709;54.912;8.316;2023-07-29T07:28:26;5.63;;;3.72;;
65130;SDS011;51709;54.912;8.316;2023-07-29T07:33:46;3.72;;;3.38;;
65130;SDS011;51709;54.912;8.316;2023-07-29T07:39:07;3.47;;;2.50;;
65130;SDS011;51709;54.912;8.316;2023-07-29T07:44:27;4.53;;;2.63;;
65130;SDS011;51709;54.912;8.316;2023-07-29T07:49:48;1.98;;;1.75;;
65130;SDS011;51709;54.912;8.316;2023-07-29T07:55:10;5.70;;;4.45;;
65130;SDS011;51709;54.912;8.316;2023-07-29T08:00:31;11.68;;;4.38;;
65130;SDS011;51709;54.912;8.316;2023-07-29T08:05:51;7.55;;;4.07;;
65130;SDS011;51709;54.912;8.316;2023-07-29T08:11:12;11.35;;;4.90;;
65130;SDS011;51709;54.912;8.316;2023-07-29T08:16:32;200.50;;;124.05;;
65130;SDS011;51709;54.912;8.316;2023-07-29T08:21:53;188.85;;;131.02;;
65130;SDS011;51709;54.912;8.316;2023-07-29T08:27:14;4.55;;;3.25;;
65130;SDS011;51709;54.912;8.316;2023-07-29T08:32:34;92.07;;;11.57;;
65130;SDS011;51709;54.912;8.316;2023-07-29T08:37:55;9.45;;;4.60;;
65130;SDS011;51709;54.912;8.316;2023-07-29T08:43:16;14.77;;;6.15;;
65130;SDS011;51709;54.912;8.316;2023-07-29T08:48:39;14.87;;;6.47;;
65130;SDS011;51709;54.912;8.316;2023-07-29T08:54:01;21.80;;;5.93;;
65130;SDS011;51709;54.912;8.316;2023-07-29T08:59:22;18.10;;;6.57;;
65130;SDS011;51709;54.912;8.316;2023-07-29T09:04:43;18.73;;;8.23;;
65130;SDS011;51709;54.912;8.316;2023-07-29T09:10:04;1999.90;;;999.90;;
65130;SDS011;51709;54.912;8.316;2023-07-29T09:15:29;1999.90;;;999.90;;
65130;SDS011;51709;54.912;8.316;2023-07-29T09:20:51;1999.90;;;999.90;;
65130;SDS011;51709;54.912;8.316;2023-07-29T09:26:12;1999.90;;;999.90;;
65130;SDS011;51709;54.912;8.316;2023-07-29T09:31:32;6.50;;;4.22;;
65130;SDS011;51709;54.912;8.316;2023-07-29T09:36:53;9.05;;;4.15;;
65130;SDS011;51709;54.912;8.316;2023-07-29T09:42:20;10.52;;;5.15;;
65130;SDS011;51709;54.912;8.316;2023-07-29T09:47:41;15.68;;;5.40;;
65130;SDS011;51709;54.912;8.316;2023-07-29T09:53:06;12.40;;;4.60;;
65130;SDS011;51709;54.912;8.316;2023-07-29T09:58:27;22.55;;;5.35;;
65130;SDS011;51709;54.912;8.316;2023-07-29T10:03:48;15.98;;;4.70;;
65130;SDS011;51709;54.912;8.316;2023-07-29T10:09:10;15.15;;;5.05;;
65130;SDS011;51709;54.912;8.316;2023-07-29T10:14:32;57.42;;;5.40;;
65130;SDS011;51709;54.912;8.316;2023-07-29T10:19:53;11.88;;;4.13;;
65130;SDS011;51709;54.912;8.316;2023-07-29T10:25:18;333.58;;;42.08;;
65130;SDS011;51709;54.912;8.316;2023-07-29T10:30:42;1059.65;;;555.30;;
65130;SDS011;51709;54.912;8.316;2023-07-29T10:36:03;1999.90;;;999.90;;
65130;SDS011;51709;54.912;8.316;2023-07-29T10:41:24;1999.90;;;999.90;;
65130;SDS011;51709;54.912;8.316;2023-07-29T10:47:25;1999.90;;;999.90;;
65130;SDS011;51709;54.912;8.316;2023-07-29T10:52:51;1999.90;;;999.90;;
65130;SDS011;51709;54.912;8.316;2023-07-29T10:58:15;1999.90;;;999.90;;
65130;SDS011;51709;54.912;8.316;2023-07-29T11:03:39;1999.90;;;999.90;;
65130;SDS011;51709;54.912;8.316;2023-07-29T11:09:00;1999.90;;;999.90;;
65130;SDS011;51709;54.912;8.316;2023-07-29T11:14:21;8.73;;;5.28;;
65130;SDS011;51709;54.912;8.316;2023-07-29T11:19:42;1999.90;;;999.90;;
65130;SDS011;51709;54.912;8.316;2023-07-29T11:25:05;84.80;;;80.00;;
65130;SDS011;51709;54.912;8.316;2023-07-29T11:30:28;61.58;;;42.65;;
65130;SDS011;51709;54.912;8.316;2023-07-29T11:35:50;119.13;;;103.78;;
65130;SDS011;51709;54.912;8.316;2023-07-29T11:41:10;15.70;;;3.63;;
65130;SDS011;51709;54.912;8.316;2023-07-29T11:46:31;12.80;;;3.97;;
65130;SDS011;51709;54.912;8.316;2023-07-29T11:51:52;12.27;;;3.97;;
65130;SDS011;51709;54.912;8.316;2023-07-29T11:57:13;21.42;;;5.32;;
65130;SDS011;51709;54.912;8.316;2023-07-29T12:02:35;8.23;;;3.20;;
65130;SDS011;51709;54.912;8.316;2023-07-29T12:07:57;12.80;;;4.40;;
65130;SDS011;51709;54.912;8.316;2023-07-29T12:13:18;15.32;;;4.22;;
65130;SDS011;51709;54.912;8.316;2023-07-29T12:18:39;10.65;;;3.53;;
65130;SDS011;51709;54.912;8.316;2023-07-29T12:23:59;10.65;;;3.80;;
65130;SDS011;51709;54.912;8.316;2023-07-29T12:29:21;11.02;;;4.22;;
65130;SDS011;51709;54.912;8.316;2023-07-29T12:34:41;11.02;;;3.75;;
65130;SDS011;51709;54.912;8.316;2023-07-29T12:40:03;8.20;;;3.78;;
65130;SDS011;51709;54.912;8.316;2023-07-29T12:45:24;10.80;;;3.72;;
65130;SDS011;51709;54.912;8.316;2023-07-29T12:50:48;8.70;;;3.20;;
65130;SDS011;51709;54.912;8.316;2023-07-29T12:56:08;5.78;;;4.03;;
65130;SDS011;51709;54.912;8.316;2023-07-29T13:01:29;25.98;;;4.72;;
65130;SDS011;51709;54.912;8.316;2023-07-29T13:06:49;5.45;;;3.25;;
65130;SDS011;51709;54.912;8.316;2023-07-29T13:12:11;9.73;;;3.13;;
65130;SDS011;51709;54.912;8.316;2023-07-29T13:17:32;5.70;;;2.72;;
65130;SDS011;51709;54.912;8.316;2023-07-29T13:22:53;10.27;;;3.85;;
65130;SDS011;51709;54.912;8.316;2023-07-29T13:28:14;7.28;;;3.47;;
65130;SDS011;51709;54.912;8.316;2023-07-29T13:33:35;4.00;;;2.90;;
65130;SDS011;51709;54.912;8.316;2023-07-29T13:38:55;7.63;;;3.38;;
65130;SDS011;51709;54.912;8.316;2023-07-29T13:44:16;12.60;;;5.68;;
65130;SDS011;51709;54.912;8.316;2023-07-29T13:49:36;310.27;;;63.63;;
65130;SDS011;51709;54.912;8.316;2023-07-29T13:54:57;6.88;;;3.00;;
65130;SDS011;51709;54.912;8.316;2023-07-29T14:00:18;7.13;;;3.58;;
65130;SDS011;51709;54.912;8.316;2023-07-29T14:05:40;1999.90;;;999.90;;
65130;SDS011;51709;54.912;8.316;2023-07-29T14:11:01;1999.90;;;999.90;;
65130;SDS011;51709;54.912;8.316;2023-07-29T14:16:22;1999.90;;;999.90;;
65130;SDS011;51709;54.912;8.316;2023-07-29T14:21:42;1999.90;;;999.90;;
65130;SDS011;51709;54.912;8.316;2023-07-29T14:27:03;1999.90;;;999.90;;
65130;SDS011;51709;54.912;8.316;2023-07-29T14:32:24;1999.90;;;999.90;;
65130;SDS011;51709;54.912;8.316;2023-07-29T14:37:44;1999.90;;;999.90;;
65130;SDS011;51709;54.912;8.316;2023-07-29T14:43:05;1999.90;;;999.90;;
65130;SDS011;51709;54.912;8.316;2023-07-29T14:48:26;1999.90;;;999.90;;
65130;SDS011;51709;54.912;8.316;2023-07-29T14:53:47;336.23;;;166.75;;
65130;SDS011;51709;54.912;8.316;2023-07-29T14:59:07;1999.90;;;999.90;;
65130;SDS011;51709;54.912;8.316;2023-07-29T15:04:28;1999.90;;;999.90;;
65130;SDS011;51709;54.912;8.316;2023-07-29T15:09:48;1999.90;;;999.90;;
65130;SDS011;51709;54.912;8.316;2023-07-29T15:15:09;1999.90;;;999.90;;
65130;SDS011;51709;54.912;8.316;2023-07-29T15:20:31;1999.90;;;999.90;;
65130;SDS011;51709;54.912;8.316;2023-07-29T15:25:52;1999.90;;;999.90;;
65130;SDS011;51709;54.912;8.316;2023-07-29T15:31:13;1999.90;;;999.90;;
65130;SDS011;51709;54.912;8.316;2023-07-29T15:36:34;1999.90;;;999.90;;
65130;SDS011;51709;54.912;8.316;2023-07-29T15:41:55;360.15;;;170.93;;
65130;SDS011;51709;54.912;8.316;2023-07-29T15:47:16;30.60;;;27.88;;
65130;SDS011;51709;54.912;8.316;2023-07-29T15:52:39;289.83;;;227.57;;
65130;SDS011;51709;54.912;8.316;2023-07-29T15:58:02;7.38;;;3.13;;
65130;SDS011;51709;54.912;8.316;2023-07-29T16:03:23;16.60;;;3.28;;
65130;SDS011;51709;54.912;8.316;2023-07-29T16:08:44;13.32;;;3.45;;
65130;SDS011;51709;54.912;8.316;2023-07-29T16:14:04;10.38;;;4.15;;
65130;SDS011;51709;54.912;8.316;2023-07-29T16:19:26;8.30;;;4.13;;
65130;SDS011;51709;54.912;8.316;2023-07-29T16:24:50;5.82;;;2.92;;
65130;SDS011;51709;54.912;8.316;2023-07-29T16:30:12;5.90;;;2.92;;
65130;SDS011;51709;54.912;8.316;2023-07-29T16:35:33;11.48;;;3.90;;
65130;SDS011;51709;54.912;8.316;2023-07-29T16:40:54;13.88;;;3.33;;
65130;SDS011;51709;54.912;8.316;2023-07-29T16:46:33;4.80;;;3.38;;
65130;SDS011;51709;54.912;8.316;2023-07-29T16:51:53;5.90;;;2.65;;
65130;SDS011;51709;54.912;8.316;2023-07-29T16:57:14;6.70;;;3.47;;
65130;SDS011;51709;54.912;8.316;2023-07-29T17:02:35;8.65;;;3.15;;
65130;SDS011;51709;54.912;8.316;2023-07-29T17:07:55;12.50;;;3.47;;
65130;SDS011;51709;54.912;8.316;2023-07-29T17:13:16;8.30;;;2.50;;
65130;SDS011;51709;54.912;8.316;2023-07-29T17:18:37;104.35;;;50.78;;
65130;SDS011;51709;54.912;8.316;2023-07-29T17:23:59;43.00;;;4.03;;
65130;SDS011;51709;54.912;8.316;2023-07-29T17:29:19;10.13;;;3.17;;
65130;SDS011;51709;54.912;8.316;2023-07-29T17:34:40;12.50;;;2.75;;
65130;SDS011;51709;54.912;8.316;2023-07-29T17:40:01;11.07;;;3.53;;
65130;SDS011;51709;54.912;8.316;2023-07-29T17:45:21;12.65;;;3.33;;
65130;SDS011;51709;54.912;8.316;2023-07-29T17:50:42;6.45;;;2.78;;
65130;SDS011;51709;54.912;8.316;2023-07-29T17:56:03;1514.78;;;234.77;;
65130;SDS011;51709;54.912;8.316;2023-07-29T18:01:24;7.75;;;3.15;;
65130;SDS011;51709;54.912;8.316;2023-07-29T18:06:44;472.45;;;85.97;;
65130;SDS011;51709;54.912;8.316;2023-07-29T18:12:05;9.32;;;4.40;;
65130;SDS011;51709;54.912;8.316;2023-07-29T18:17:26;14.10;;;9.05;;
65130;SDS011;51709;54.912;8.316;2023-07-29T18:22:47;1999.90;;;999.90;;
65130;SDS011;51709;54.912;8.316;2023-07-29T18:28:09;974.88;;;109.55;;
65130;SDS011;51709;54.912;8.316;2023-07-29T18:33:30;11.32;;;3.38;;
65130;SDS011;51709;54.912;8.316;2023-07-29T18:38:50;10.38;;;2.88;;
65130;SDS011;51709;54.912;8.316;2023-07-29T18:44:11;7.88;;;3.30;;
65130;SDS011;51709;54.912;8.316;2023-07-29T18:49:32;4.60;;;2.83;;
65130;SDS011;51709;54.912;8.316;2023-07-29T18:54:52;6.07;;;2.88;;
65130;SDS011;51709;54.912;8.316;2023-07-29T19:00:13;7.28;;;3.60;;
65130;SDS011;51709;54.912;8.316;2023-07-29T19:05:33;15.13;;;2.90;;
65130;SDS011;51709;54.912;8.316;2023-07-29T19:10:54;14.07;;;3.33;;
65130;SDS011;51709;54.912;8.316;2023-07-29T19:16:14;7.90;;;2.83;;
65130;SDS011;51709;54.912;8.316;2023-07-29T19:21:40;11.38;;;2.78;;
65130;SDS011;51709;54.912;8.316;2023-07-29T19:27:01;7.60;;;2.75;;
65130;SDS011;51709;54.912;8.316;2023-07-29T19:32:24;5.53;;;2.40;;
65130;SDS011;51709;54.912;8.316;2023-07-29T19:37:44;11.65;;;2.60;;
65130;SDS011;51709;54.912;8.316;2023-07-29T19:43:05;11.25;;;3.05;;
65130;SDS011;51709;54.912;8.316;2023-07-29T19:48:25;8.63;;;2.90;;
65130;SDS011;51709;54.912;8.316;2023-07-29T19:53:49;12.90;;;2.60;;
65130;SDS011;51709;54.912;8.316;2023-07-29T19:59:10;11.50;;;3.03;;
65130;SDS011;51709;54.912;8.316;2023-07-29T20:04:30;10.93;;;3.47;;
65130;SDS011;51709;54.912;8.316;2023-07-29T20:09:51;7.28;;;2.53;;
65130;SDS011;51709;54.912;8.316;2023-07-29T20:15:12;476.70;;;138.55;;
65130;SDS011;51709;54.912;8.316;2023-07-29T20:20:33;14.20;;;3.90;;
65130;SDS011;51709;54.912;8.316;2023-07-29T20:25:53;423.15;;;384.35;;
65130;SDS011;51709;54.912;8.316;2023-07-29T20:31:14;4.65;;;2.40;;
65130;SDS011;51709;54.912;8.316;2023-07-29T20:36:35;7.55;;;2.53;;
65130;SDS011;51709;54.912;8.316;2023-07-29T20:41:55;5.60;;;3.03;;
65130;SDS011;51709;54.912;8.316;2023-07-29T20:47:16;6.60;;;3.03;;
65130;SDS011;51709;54.912;8.316;2023-07-29T20:52:37;13.32;;;3.08;;
65130;SDS011;51709;54.912;8.316;2023-07-29T20:57:58;3.67;;;2.30;;
65130;SDS011;51709;54.912;8.316;2023-07-29T21:03:19;2.78;;;2.13;;
65130;SDS011;51709;54.912;8.316;2023-07-29T21:08:39;2.38;;;2.00;;
65130;SDS011;51709;54.912;8.316;2023-07-29T21:14:00;6.95;;;3.47;;
65130;SDS011;51709;54.912;8.316;2023-07-29T21:19:21;5.80;;;2.90;;
65130;SDS011;51709;54.912;8.316;2023-07-29T21:24:41;6.53;;;3.10;;
65130;SDS011;51709;54.912;8.316;2023-07-29T21:30:02;9.10;;;3.25;;
65130;SDS011;51709;54.912;8.316;2023-07-29T21:35:23;14.88;;;2.92;;
65130;SDS011;51709;54.912;8.316;2023-07-29T21:40:48;5.82;;;2.65;;
65130;SDS011;51709;54.912;8.316;2023-07-29T21:46:10;4.28;;;2.10;;
65130;SDS011;51709;54.912;8.316;2023-07-29T21:51:31;8.70;;;2.72;;
65130;SDS011;51709;54.912;8.316;2023-07-29T21:56:52;3.35;;;2.30;;
65130;SDS011;51709;54.912;8.316;2023-07-29T22:02:12;5.32;;;3.00;;
65130;SDS011;51709;54.912;8.316;2023-07-29T22:07:33;10.13;;;3.72;;
65130;SDS011;51709;54.912;8.316;2023-07-29T22:12:53;16.60;;;4.30;;
65130;SDS011;51709;54.912;8.316;2023-07-29T22:18:15;12.50;;;3.42;;
65130;SDS011;51709;54.912;8.316;2023-07-29T22:23:36;9.40;;;3.67;;
65130;SDS011;51709;54.912;8.316;2023-07-29T22:29:13;7.82;;;3.03;;
65130;SDS011;51709;54.912;8.316;2023-07-29T22:34:34;1.98;;;1.40;;
65130;SDS011;51709;54.912;8.316;2023-07-29T22:39:55;10.45;;;2.17;;
65130;SDS011;51709;54.912;8.316;2023-07-29T22:45:16;6.57;;;2.25;;
65130;SDS011;51709;54.912;8.316;2023-07-29T22:50:37;13.95;;;2.97;;
65130;SDS011;51709;54.912;8.316;2023-07-29T22:55:57;4.63;;;2.25;;
65130;SDS011;51709;54.912;8.316;2023-07-29T23:01:18;4.22;;;1.80;;
65130;SDS011;51709;54.912;8.316;2023-07-29T23:06:39;7.65;;;2.25;;
65130;SDS011;51709;54.912;8.316;2023-07-29T23:11:59;4.60;;;2.15;;
65130;SDS011;51709;54.912;8.316;2023-07-29T23:17:20;6.35;;;1.90;;
65130;SDS011;51709;54.912;8.316;2023-07-29T23:22:41;434.00;;;159.60;;
65130;SDS011;51709;54.912;8.316;2023-07-29T23:28:01;4.93;;;3.38;;
65130;SDS011;51709;54.912;8.316;2023-07-29T23:33:22;242.13;;;181.88;;
65130;SDS011;51709;54.912;8.316;2023-07-29T23:38:44;7.47;;;2.08;;
65130;SDS011;51709;54.912;8.316;2023-07-29T23:44:05;324.77;;;98.40;;
65130;SDS011;51709;54.912;8.316;2023-07-29T23:49:26;17.80;;;2.50;;
65130;SDS011;51709;54.912;8.316;2023-07-29T23:54:46;7.35;;;2.10;;
